Skip to main content

NOAA/GLERL Met Station at Muskegon, MI

Previous 3 Hours (2 minute increments)
See also Previous 5 Days (top of hour)
Jump down to Data
Switch to [English][Metric]
Zoom: Click and drag, Pan: shift-click and drag, Unzoom: double-click, Unzoom All






See also 1-day windrose plot


NOAA/GLERL Met Station at Muskegon, MI

Previous 3 Hours (2 minute increments)
See also Previous 5 Days (top of hour only)
Jump up to Graphs
Switch to [English][Metric]
                  Wind  Wind  Wind   Air   Dew   Rel     Sta   PAR
                   Spd   Gst   Dir  Temp    Pt   Hum    Pres uE/m2/
YYYY-MM-DD   EDT   kts   kts   deg     F     F     %   in Hg   sec
2017-04-24 22:40   8.7  10.5   137  62.4  32.2  31.7   29.18     2
2017-04-24 22:38   8.7  11.5   137  62.6  32.2  31.5   29.18     2
2017-04-24 22:36   8.9  10.5   136  62.6  32.0  31.3   29.18     2
2017-04-24 22:34   8.6  10.5   138  62.6  31.9  31.2   29.18     2
2017-04-24 22:32   8.7  12.2   136  62.8  32.2  31.3   29.18     2
2017-04-24 22:30   9.1  11.3   139  62.8  31.9  31.0   29.19     2
2017-04-24 22:28   7.6  11.5   138  63.0  32.0  30.9   29.19     2
2017-04-24 22:26   8.6  10.5   135  62.8  31.9  31.0   29.19     2
2017-04-24 22:24   8.4  11.3   139  62.8  31.9  31.0   29.19     2
2017-04-24 22:22   8.6  10.9   140  63.0  32.0  30.9   29.19     2
2017-04-24 22:20   8.7  11.3   140  63.3  32.0  30.5   29.18     2
2017-04-24 22:18   8.9  12.4   139  63.3  32.0  30.5   29.18     2
2017-04-24 22:16   9.1  12.8   138  63.3  32.1  30.6   29.18     2
2017-04-24 22:14   8.7  11.5   136  63.3  32.1  30.6   29.18     2
2017-04-24 22:12   9.5  12.4   138  63.3  32.1  30.6   29.18     2
2017-04-24 22:10   9.5  11.5   140  63.5  32.2  30.5   29.18     2
2017-04-24 22:08   9.9  12.2   136  63.7  32.3  30.5   29.18     2
2017-04-24 22:06   9.1  12.2   135  63.7  32.2  30.3   29.18     2
2017-04-24 22:04   9.5  12.2   137  63.7  32.4  30.6   29.18     2
2017-04-24 22:02   8.4   9.3   135  63.7  32.4  30.6   29.18     2
2017-04-24 22:00   8.7  10.7   134  63.7  32.3  30.5   29.18     2
2017-04-24 21:58   8.4  10.1   136  63.9  32.4  30.4   29.18     2
2017-04-24 21:56   9.5  11.5   138  64.0  32.5  30.3   29.18     2
2017-04-24 21:54   8.9  11.7   139  64.0  32.5  30.3   29.18     2
2017-04-24 21:52   9.1  10.7   135  64.0  32.4  30.2   29.18     2
2017-04-24 21:50   8.7  12.1   134  64.0  32.4  30.2   29.18     2
2017-04-24 21:48   9.1  11.7   134  64.2  32.4  30.0   29.18     2
2017-04-24 21:46   9.3  11.9   138  64.2  32.3  29.9   29.18     2
2017-04-24 21:44   8.7  11.1   135  64.2  32.5  30.1   29.18     2
2017-04-24 21:42   7.8   9.7   137  64.4  32.7  30.2   29.18     2
2017-04-24 21:40   8.9  10.9   138  64.6  32.8  30.1   29.18     2
2017-04-24 21:38   8.9  11.1   137  64.6  32.7  30.0   29.18     2
2017-04-24 21:36   8.4  11.9   134  64.6  32.7  30.0   29.18     2
2017-04-24 21:34  10.1  12.4   136  64.6  32.9  30.2   29.18     2
2017-04-24 21:32   8.6  12.4   132  64.6  33.0  30.3   29.18     2
2017-04-24 21:30   9.3  11.5   133  64.6  33.0  30.3   29.18     2
2017-04-24 21:28   8.2  10.7   137  64.8  33.0  30.2   29.18     2
2017-04-24 21:26   8.7  10.1   133  64.8  33.0  30.2   29.18     2
2017-04-24 21:24   8.7  10.1   134  64.9  33.0  30.0   29.18     2
2017-04-24 21:22   8.7  11.7   135  64.9  32.9  29.9   29.18     2
2017-04-24 21:20   8.9  12.4   133  65.1  33.3  30.1   29.18     2
2017-04-24 21:18   8.9  12.2   134  65.1  33.2  30.0   29.18     2
2017-04-24 21:16   9.9  11.1   134  65.1  33.3  30.1   29.18     2
2017-04-24 21:14   9.3  12.2   131  65.3  33.1  29.7   29.18     2
2017-04-24 21:12   8.7  10.9   131  65.5  33.1  29.5   29.18     2
2017-04-24 21:10   8.0   9.5   130  65.3  32.8  29.4   29.18     2
2017-04-24 21:08   7.8   9.3   131  65.5  33.0  29.4   29.18     2
2017-04-24 21:06   7.8   8.9   129  65.5  32.7  29.1   29.18     2
2017-04-24 21:04   8.2  10.7   128  65.5  32.7  29.1   29.18     2
2017-04-24 21:02   8.0   9.1   129  65.5  32.7  29.1   29.19     2
2017-04-24 21:00   7.8   8.9   130  65.7  32.7  28.9   29.18     2
2017-04-24 20:58   7.8   8.7   133  66.0  32.7  28.5   29.19     3
2017-04-24 20:56   8.2  10.1   131  66.2  32.5  28.1   29.18     3
2017-04-24 20:54   8.0   9.5   132  66.4  32.5  27.9   29.18     4
2017-04-24 20:52   8.2   9.7   134  66.4  32.2  27.6   29.19     5
2017-04-24 20:50   8.0   9.3   133  66.6  32.3  27.5   29.18     6
2017-04-24 20:48   7.2   9.5   131  66.7  32.2  27.2   29.19     6
2017-04-24 20:46   7.6   9.3   131  66.9  32.1  27.0   29.18     8
2017-04-24 20:44   7.8  10.1   132  66.9  32.3  27.2   29.18     9
2017-04-24 20:42   7.4   8.7   137  67.1  32.4  27.1   29.19    11
2017-04-24 20:40   7.6   9.5   132  67.3  32.3  26.8   29.19    14
2017-04-24 20:38   8.4   9.7   135  67.5  32.1  26.4   29.19    17
2017-04-24 20:36   8.4  10.3   132  67.5  32.1  26.4   29.19    22
2017-04-24 20:34   7.2   9.1   138  67.6  31.7  25.9   29.19    28
2017-04-24 20:32   8.0  10.3   136  67.8  31.7  25.7   29.19    35
2017-04-24 20:30   9.1  11.1   135  68.0  32.0  25.8   29.19    39
2017-04-24 20:28   8.2   9.3   135  68.2  32.0  25.7   29.19    47
2017-04-24 20:26   9.5  11.3   130  68.2  31.5  25.2   29.19    55
2017-04-24 20:24   8.9  11.5   141  68.5  31.6  24.9   29.19    66
2017-04-24 20:22   8.9  12.4   136  68.5  31.4  24.7   29.19    76
2017-04-24 20:20   8.9  13.0   135  68.5  31.6  24.9   29.19    86
2017-04-24 20:18  10.1  15.4   140  68.5  31.5  24.8   29.19    97
2017-04-24 20:16   9.1  11.1   142  68.7  31.8  25.0   29.19   108
2017-04-24 20:14  10.3  13.0   141  68.7  31.9  25.1   29.19   121
2017-04-24 20:12   8.7  11.7   140  68.7  32.2  25.4   29.19   136
2017-04-24 20:10   7.8   9.7   139  68.9  32.0  25.0   29.20   151
2017-04-24 20:08   8.7  12.2   137  69.1  32.2  25.1   29.19   172
2017-04-24 20:06   9.1  13.0   140  69.1  32.2  25.1   29.19   200
2017-04-24 20:04   8.7  11.5   136  69.3  32.5  25.2   29.19   253
2017-04-24 20:02   8.4  11.9   138  69.4  32.1  24.7   29.20   313
2017-04-24 20:00   8.7  11.3   142  69.4  32.3  24.9   29.20   328
2017-04-24 19:58   9.9  13.0   141  69.4  32.3  24.9   29.20   333
2017-04-24 19:56   9.7  12.8   143  69.6  32.7  25.1   29.20   343
2017-04-24 19:54   9.7  11.7   141  69.8  32.7  25.0   29.20   434
2017-04-24 19:52   9.5  12.6   145  70.0  32.7  24.8   29.20   553
2017-04-24 19:50   9.5  13.4   141  70.0  32.7  24.8   29.20   467
2017-04-24 19:48  10.1  13.6   140  70.0  32.8  24.9   29.20   455
2017-04-24 19:46  11.7  15.0   141  70.0  33.0  25.1   29.20   456
2017-04-24 19:44   9.9  15.0   137  70.2  33.0  24.9   29.20   475
2017-04-24 19:42   6.6  11.1   143  70.2  33.2  25.1   29.20   532
2017-04-24 19:40   8.2  11.1   144  70.2  33.0  24.9   29.20   600